• Join FlightAware (Why Join?)
  • Login
  • US Flag 
05:02PM EST


 

Airport Tracker/Info


-or-


 

Live Flight TrackerFlight Track Log ✈ AFR7712 ✈ 13-Jun-2013 ✈ LFPG / CDG - LFMN / NCE

Flight Track Log - Related Links

Times and Time Zones

All times are in EDT time to prevent confusion due to time zone crossing. See the AFR7712 flight status page for this flight to view local times or setup timezone preferences in your user account.

Time Position Orientation Groundspeed Altitude Reporting Facility
EDT Latitude Longitude Course Direction KTS MPH feet Rate Location/Type
04:02PM 48.4145 3.1287 147° Southeast  Level Estimated
04:03PM 48.3545 3.1858 148° Southeast  Level Estimated
04:04PM 48.2945 3.2428 148° Southeast  Level Estimated
04:05PM 48.2345 3.2997 148° Southeast  Level Estimated
04:06PM 48.1744 3.3564 148° Southeast  Level Estimated
04:07PM 48.1143 3.4130 148° Southeast  Level Estimated
04:08PM 48.0542 3.4694 148° Southeast  Level Estimated
04:09PM 47.9940 3.5258 148° Southeast  Level Estimated
04:10PM 47.9339 3.5819 148° Southeast  Level Estimated
04:11PM 47.8736 3.6380 148° Southeast  Level Estimated
04:12PM 47.8134 3.6939 148° Southeast  Level Estimated
04:13PM 47.7532 3.7497 148° Southeast  Level Estimated
04:14PM 47.6929 3.8054 148° Southeast  Level Estimated
04:15PM 47.6325 3.8609 148° Southeast  Level Estimated
04:16PM 47.5722 3.9164 148° Southeast  Level Estimated
04:17PM 47.5118 3.9717 148° Southeast  Level Estimated
04:18PM 47.4514 4.0268 148° Southeast  Level Estimated
04:19PM 47.3910 4.0819 148° Southeast  Level Estimated
04:20PM 47.3306 4.1368 148° Southeast  Level Estimated
04:21PM 47.2701 4.1915 148° Southeast  Level Estimated
04:22PM 47.2096 4.2462 148° Southeast  Level Estimated
04:23PM 47.1491 4.3007 148° Southeast  Level Estimated
04:24PM 47.0885 4.3551 149° Southeast  Level Estimated
04:25PM 47.0279 4.4094 149° Southeast  Level Estimated
04:26PM 46.9673 4.4636 149° Southeast  Level Estimated
04:27PM 46.8962 4.5270 149° Southeast  Level Estimated
04:28PM 46.8250 4.5902 149° Southeast  Level Estimated
04:29PM 46.7538 4.6533 149° Southeast  Level Estimated
04:30PM 46.6826 4.7162 149° Southeast  Level Estimated
04:31PM 46.6113 4.7789 149° Southeast  Level Estimated
04:32PM 46.5400 4.8415 149° Southeast  Level Estimated
04:33PM 46.4686 4.9039 149° Southeast  Level Estimated
04:34PM 46.3973 4.9661 149° Southeast  Level Estimated
04:35PM 46.3259 5.0282 149° Southeast  Level Estimated
04:36PM 46.2544 5.0901 149° Southeast  Level Estimated
04:37PM 46.1829 5.1518 149° Southeast  Level Estimated
04:38PM 46.1114 5.2134 149° Southeast  Level Estimated
04:39PM 46.0399 5.2748 149° Southeast  Level Estimated
04:40PM 45.9683 5.3361 149° Southeast  Level Estimated
04:41PM 45.8967 5.3972 149° Southeast  Level Estimated
04:42PM 45.8250 5.4582 149° Southeast  Level Estimated
04:43PM 45.7533 5.5190 149° Southeast  Level Estimated
04:44PM 45.6816 5.5796 149° Southeast  Level Estimated
04:45PM 45.6099 5.6401 149° Southeast  Level Estimated
04:46PM 45.5381 5.7004 150° Southeast  Level Estimated
04:47PM 45.4663 5.7606 150° Southeast  Level Estimated
04:48PM 45.3945 5.8206 150° Southeast  Level Estimated
04:49PM 45.3226 5.8805 150° Southeast  Level Estimated
04:50PM 45.2507 5.9402 150° Southeast  Level Estimated
04:51PM 45.1788 5.9998 150° Southeast  Level Estimated
04:52PM 45.1068 6.0592 150° Southeast  Level Estimated
04:53PM 45.0348 6.1185 150° Southeast  Level Estimated
04:54PM 44.9628 6.1776 150° Southeast  Level Estimated
04:55PM 44.8908 6.2366 150° Southeast  Level Estimated
04:56PM 44.8187 6.2954 150° Southeast  Level Estimated
04:57PM 44.7466 6.3541 150° Southeast  Level Estimated
04:58PM 44.6744 6.4126 150° Southeast  Level Estimated
04:59PM 44.6022 6.4710 150° Southeast  Level Estimated
05:00PM 44.5300 6.5292 150° Southeast  Level Estimated
05:01PM 44.4578 6.5873 150° Southeast  Level Estimated
05:02PM 44.3856 6.6453 150° Southeast  Level Estimated
05:03PM 44.3133 6.7031 150° Southeast  Level Estimated
05:04PM 44.2410 6.7608 150° Southeast  Level Estimated
05:05PM 44.1686 6.8183 150° Southeast  Level Estimated
05:06PM 44.0962 6.8757 150° Southeast  Level Estimated
05:07PM 44.0238 6.9329 150° Southeast  Level Estimated
05:08PM 43.9514 6.9900 150° Southeast  Level Estimated
05:09PM 43.8789 7.0470 150° Southeast  Level Estimated
05:10PM 43.8064 7.1038 150° Southeast  Level Estimated
05:11PM 43.7287 7.1645 151° Southeast  Level Estimated
05:12PM 43.6607 7.2176 151° Southeast  Level Estimated
05:13PM 43.6607 7.2176 144° Southeast  Level Estimated
05:14PM 43.6607 7.2176 144° Southeast  Level Estimated
05:15PM 43.6607 7.2176 144° Southeast  Level Estimated
05:16PM 43.6607 7.2176 144° Southeast  Level Estimated
05:17PM 43.6607 7.2176 144° Southeast  Level Estimated
05:18PM 43.6607 7.2176 144° Southeast  Level Estimated